Time;durP1;ratioP1;P1;durP2;ratioP2;P2;SDS_P1;SDS_P2;PMS_P1;PMS_P2;Temp;Humidity;BMP_temperature;BMP_pressure;BME280_temperature;BME280_humidity;BME280_pressure;Samples;Min_cycle;Max_cycle;Signal;HPM_P1;HPM_P2
2022/12/15 00:40:03;;;;;;;19.25;11.80;;;;;;;1.04;61.32;100584.25;1766808;80;21023;-69
2022/12/15 00:42:27;;;;;;;17.30;10.93;;;;;;;1.01;61.25;100584.64;1742279;81;21739;-70
2022/12/15 00:44:56;;;;;;;14.90;10.08;;;;;;;0.98;61.19;100575.31;1754676;81;21040;-70
2022/12/15 00:47:23;;;;;;;16.17;11.33;;;;;;;0.91;61.20;100568.69;1753859;81;21593;-69
2022/12/15 01:20:12;;;;;;;16.27;10.10;;;;;;;1.05;60.68;100530.12;1738270;81;21047;-69
2022/12/15 01:22:39;;;;;;;15.88;10.18;;;;;;;1.07;60.61;100525.49;1719605;82;21855;-69
2022/12/15 01:25:07;;;;;;;16.73;11.08;;;;;;;1.09;60.50;100529.26;1733389;81;21042;-69
2022/12/15 01:27:33;;;;;;;15.03;10.08;;;;;;;1.12;60.41;100523.61;1743923;81;21042;-69
2022/12/15 01:30:00;;;;;;;16.37;10.88;;;;;;;1.05;60.38;100524.86;1750012;81;21046;-69
2022/12/15 01:32:26;;;;;;;17.48;10.65;;;;;;;1.10;60.18;100520.35;1736710;81;21094;-69
2022/12/15 01:34:53;;;;;;;15.38;9.95;;;;;;;1.12;59.99;100515.21;1747961;81;21272;-69
2022/12/15 01:37:20;;;;;;;15.70;10.05;;;;;;;1.16;59.77;100511.17;1740994;81;21078;-69
2022/12/15 01:42:33;;;;;;;16.87;10.98;;;;;;;1.18;59.49;100509.65;1756210;81;21030;-69
2022/12/15 01:45:29;;;;;;;15.28;9.83;;;;;;;1.16;59.51;100513.80;1753368;81;21086;-70
2022/12/15 01:48:03;;;;;;;16.85;9.75;;;;;;;1.17;59.44;100506.20;1689249;84;21112;-68
2022/12/15 01:50:32;;;;;;;16.07;10.72;;;;;;;1.14;59.31;100510.55;1672484;84;21081;-68
2022/12/15 01:52:58;;;;;;;15.28;9.45;;;;;;;1.14;59.21;100505.80;1712248;81;21526;-68
2022/12/15 01:55:26;;;;;;;14.53;9.65;;;;;;;1.16;59.25;100501.96;1750846;81;21609;-68
2022/12/15 01:57:55;;;;;;;14.55;10.25;;;;;;;1.17;59.25;100487.80;1748047;81;21030;-68
2022/12/15 02:00:21;;;;;;;17.02;10.80;;;;;;;1.17;59.33;100487.80;1729120;81;21236;-70
2022/12/15 02:02:48;;;;;;;14.07;9.73;;;;;;;1.20;59.41;100487.10;1731251;81;20996;-69
2022/12/15 02:05:14;;;;;;;14.75;9.63;;;;;;;1.23;59.46;100486.20;1761244;81;20991;-70
2022/12/15 02:07:42;;;;;;;15.25;9.78;;;;;;;1.25;59.37;100487.31;1751983;81;21073;-70
2022/12/15 02:10:09;;;;;;;15.28;10.15;;;;;;;1.22;59.32;100471.91;1744966;81;21030;-69
2022/12/15 02:13:21;;;;;;;14.63;9.73;;;;;;;1.10;59.15;100461.97;1752302;81;21640;-69
2022/12/15 02:16:09;;;;;;;16.12;10.08;;;;;;;1.06;59.34;100455.49;1740762;81;21079;-69
2022/12/15 02:18:41;;;;;;;13.62;8.90;;;;;;;1.05;59.41;100451.22;1750675;81;21517;-67
2022/12/15 02:21:18;;;;;;;13.93;9.00;;;;;;;1.04;59.37;100452.74;1760191;81;21050;-68
2022/12/15 02:23:59;;;;;;;14.58;9.35;;;;;;;1.02;59.37;100446.38;1751149;81;21098;-68
2022/12/15 02:27:00;;;;;;;14.55;9.50;;;;;;;1.01;59.37;100442.11;1710857;81;21261;-67
2022/12/15 02:29:50;;;;;;;13.32;8.90;;;;;;;1.02;59.32;100446.38;1733733;81;21327;-69
2022/12/15 02:32:28;;;;;;;12.55;7.97;;;;;;;1.06;59.35;100451.55;1760543;81;21055;-68
2022/12/15 02:35:05;;;;;;;13.32;8.45;;;;;;;1.13;59.28;100447.11;1745680;81;21051;-68
2022/12/15 02:37:35;;;;;;;13.78;8.43;;;;;;;1.19;59.26;100446.03;1753385;81;21110;-67
2022/12/15 02:40:04;;;;;;;12.73;8.20;;;;;;;1.22;58.91;100446.44;1753578;81;21170;-67
2022/12/15 02:42:30;;;;;;;12.90;8.60;;;;;;;1.24;58.87;100452.80;1735374;81;21209;-67
2022/12/15 02:45:05;;;;;;;13.55;8.70;;;;;;;1.26;58.81;100453.43;1760871;81;21039;-67
2022/12/15 02:48:04;;;;;;;12.50;8.13;;;;;;;1.29;58.84;100447.77;1742960;81;21051;-67
2022/12/15 02:50:48;;;;;;;12.20;7.83;;;;;;;1.29;58.69;100439.38;1748127;81;21490;-68
2022/12/15 02:53:49;;;;;;;12.00;8.30;;;;;;;1.31;58.60;100424.69;1730163;81;21174;-68
2022/12/15 02:56:27;;;;;;;12.23;7.97;;;;;;;1.31;58.48;100427.32;1730937;81;21015;-69
2022/12/15 02:59:11;;;;;;;11.35;7.60;;;;;;;1.32;58.33;100434.23;1752795;80;21046;-69
2022/12/15 03:01:45;;;;;;;13.32;7.37;;;;;;;1.34;58.33;100439.57;1734149;81;21067;-67
2022/12/15 03:04:12;;;;;;;11.80;7.95;;;;;;;1.36;58.41;100432.81;1731677;81;21043;-67
2022/12/15 03:06:38;;;;;;;13.40;8.08;;;;;;;1.32;58.45;100440.80;1739765;81;21865;-68
2022/12/15 03:09:05;;;;;;;13.10;8.58;;;;;;;1.29;58.55;100433.30;1735777;81;21075;-68
2022/12/15 03:11:33;;;;;;;12.53;8.10;;;;;;;1.29;58.73;100439.88;1739912;81;21145;-69
2022/12/15 03:13:59;;;;;;;11.70;7.50;;;;;;;1.26;58.90;100438.45;1760756;81;21027;-68
2022/12/15 03:16:25;;;;;;;14.87;8.45;;;;;;;1.25;59.23;100445.21;1751615;81;21046;-68
2022/12/15 03:18:52;;;;;;;13.20;8.35;;;;;;;1.19;59.74;100439.45;1746961;81;21262;-69
2022/12/15 03:21:19;;;;;;;12.43;8.20;;;;;;;1.15;60.21;100432.43;1738841;81;21023;-69
2022/12/15 03:23:45;;;;;;;13.62;8.65;;;;;;;1.12;60.67;100424.45;1738514;81;21111;-69
2022/12/15 03:26:11;;;;;;;12.65;8.68;;;;;;;1.06;61.03;100415.23;1758145;81;21019;-68
2022/12/15 03:28:38;;;;;;;12.95;8.05;;;;;;;1.02;61.24;100412.19;1755786;81;21040;-67
2022/12/15 03:31:04;;;;;;;13.45;8.75;;;;;;;0.97;61.28;100413.27;1731143;82;21729;-68
2022/12/15 03:33:32;;;;;;;13.80;8.48;;;;;;;0.96;61.36;100409.03;1756895;81;21026;-68
2022/12/15 03:36:00;;;;;;;12.88;8.60;;;;;;;0.98;61.36;100412.77;1741976;81;21070;-68
2022/12/15 03:38:26;;;;;;;13.48;8.38;;;;;;;0.93;61.37;100393.64;1736490;81;21015;-68
2022/12/15 03:40:53;;;;;;;15.00;9.08;;;;;;;0.95;61.38;100399.50;1738072;81;21121;-69
2022/12/15 03:43:20;;;;;;;12.30;8.20;;;;;;;0.91;61.44;100391.19;1748088;81;21259;-68
2022/12/15 03:45:46;;;;;;;13.40;8.58;;;;;;;0.91;61.64;100387.25;1737489;80;21175;-69
2022/12/15 03:48:14;;;;;;;14.13;8.80;;;;;;;0.94;61.74;100387.37;1743981;81;21023;-67
2022/12/15 03:50:41;;;;;;;14.93;8.70;;;;;;;0.97;61.77;100381.71;1734559;81;21019;-67
2022/12/15 03:53:07;;;;;;;12.47;8.18;;;;;;;0.99;61.75;100370.98;1739763;81;21080;-68
2022/12/15 03:55:34;;;;;;;13.10;8.38;;;;;;;1.01;61.83;100363.20;1743212;81;21215;-68
2022/12/15 03:58:01;;;;;;;13.83;8.80;;;;;;;0.97;62.00;100360.67;1751945;81;21518;-67
2022/12/15 04:00:28;;;;;;;13.18;8.08;;;;;;;0.95;62.13;100344.27;1752005;81;21059;-67
2022/12/15 04:02:54;;;;;;;12.80;7.87;;;;;;;0.91;62.23;100334.66;1756649;80;21015;-67
2022/12/15 04:05:27;;;;;;;14.05;8.83;;;;;;;0.86;62.52;100337.09;1733359;81;21094;-68
2022/12/15 04:07:55;;;;;;;13.03;8.20;;;;;;;0.89;62.70;100341.95;1751495;81;21079;-68
2022/12/15 04:10:23;;;;;;;12.90;8.43;;;;;;;0.91;63.20;100335.16;1740890;81;21213;-68
2022/12/15 04:13:03;;;;;;;13.45;8.53;;;;;;;0.92;63.57;100343.35;1740826;81;21525;-68
2022/12/15 04:15:30;;;;;;;12.85;8.25;;;;;;;0.90;63.85;100344.08;1741931;81;21082;-68
2022/12/15 04:17:57;;;;;;;13.60;8.55;;;;;;;0.85;63.99;100335.95;1732797;81;21105;-68
2022/12/15 04:20:24;;;;;;;13.03;8.20;;;;;;;0.79;64.24;100327.06;1738266;81;21529;-69
2022/12/15 04:22:50;;;;;;;12.10;8.30;;;;;;;0.81;64.34;100325.03;1731301;81;20999;-69
2022/12/15 05:32:08;;;;;;;13.43;8.28;;;;;;;0.27;70.23;100225.23;1667085;84;21102;-67
2022/12/15 05:34:35;;;;;;;13.05;8.23;;;;;;;0.30;70.21;100228.78;1700054;83;21553;-67
2022/12/15 05:37:03;;;;;;;12.20;7.58;;;;;;;0.34;70.19;100226.05;1667796;84;21126;-67
2022/12/15 05:39:30;;;;;;;13.15;8.28;;;;;;;0.40;70.23;100218.70;1671976;83;21038;-68
2022/12/15 05:41:56;;;;;;;11.35;7.67;;;;;;;0.43;70.19;100209.92;1678036;83;21223;-68
2022/12/15 05:44:25;;;;;;;12.23;7.83;;;;;;;0.45;70.18;100203.94;1639383;86;21596;-67
2022/12/15 05:46:52;;;;;;;12.37;7.72;;;;;;;0.67;69.62;100191.45;1671732;84;21101;-67
2022/12/15 05:49:22;;;;;;;13.98;8.68;;;;;;;0.51;69.73;100193.14;1685211;83;21169;-69
2022/12/15 05:51:49;;;;;;;13.78;8.35;;;;;;;0.51;69.76;100204.97;1684122;83;21163;-69
2022/12/15 05:54:18;;;;;;;12.53;8.40;;;;;;;0.59;69.75;100214.47;1691994;84;21102;-68
2022/12/15 05:56:44;;;;;;;12.65;8.15;;;;;;;0.65;69.78;100210.54;1674864;83;21068;-69
2022/12/15 05:59:11;;;;;;;13.90;8.78;;;;;;;0.80;69.24;100209.56;1689475;82;21594;-69
2022/12/15 06:01:38;;;;;;;12.78;8.45;;;;;;;0.70;69.33;100212.08;1701359;84;21007;-69
2022/12/15 06:04:04;;;;;;;13.48;9.18;;;;;;;0.74;69.19;100211.68;1640444;86;21611;-69
2022/12/15 06:06:32;;;;;;;13.90;8.93;;;;;;;0.78;69.09;100212.89;1643843;86;21530;-68
2022/12/15 06:08:59;;;;;;;14.20;9.00;;;;;;;0.82;68.96;100210.16;1703110;83;21104;-69
2022/12/15 06:11:25;;;;;;;14.10;8.75;;;;;;;0.82;68.79;100196.50;1693143;84;21115;-69
2022/12/15 06:13:52;;;;;;;12.15;7.87;;;;;;;0.86;68.76;100189.05;1668157;85;21007;-69
2022/12/15 06:16:19;;;;;;;13.38;8.68;;;;;;;0.89;68.69;100184.19;1668227;84;21079;-69
2022/12/15 06:18:49;;;;;;;14.33;9.35;;;;;;;0.93;68.68;100183.27;1650639;84;21655;-69
2022/12/15 06:21:29;;;;;;;14.55;9.28;;;;;;;0.96;68.77;100191.27;1666296;85;21075;-70
2022/12/15 06:23:56;;;;;;;13.28;8.90;;;;;;;0.92;69.12;100185.10;1673989;84;21039;-68
2022/12/15 06:26:37;;;;;;;14.87;9.80;;;;;;;0.96;69.56;100189.95;1673736;84;21099;-69
2022/12/15 06:29:07;;;;;;;15.07;9.03;;;;;;;0.98;69.71;100201.06;1674948;85;21567;-68
2022/12/15 06:31:34;;;;;;;16.20;10.32;;;;;;;1.00;69.83;100197.73;1667246;86;21417;-69
2022/12/15 06:34:03;;;;;;;14.13;9.38;;;;;;;1.03;69.83;100186.30;1669995;84;21049;-69
2022/12/15 06:36:30;;;;;;;15.48;9.50;;;;;;;1.05;69.84;100182.14;1650876;86;21102;-67
2022/12/15 06:39:04;;;;;;;16.57;9.73;;;;;;;1.05;69.80;100180.31;1661702;84;21320;-68
2022/12/15 06:41:31;;;;;;;13.18;8.95;;;;;;;1.07;69.83;100166.98;1668632;84;21043;-67
2022/12/15 06:43:58;;;;;;;14.00;9.33;;;;;;;1.08;69.92;100172.53;1646954;86;21262;-68
2022/12/15 06:46:26;;;;;;;14.78;9.85;;;;;;;1.11;69.95;100170.81;1658980;85;21557;-68
2022/12/15 06:48:53;;;;;;;13.25;9.03;;;;;;;1.12;69.98;100170.62;1652582;86;21115;-68
2022/12/15 06:51:20;;;;;;;16.77;10.32;;;;;;;1.13;70.00;100168.28;1659710;86;21152;-69
2022/12/15 06:53:52;;;;;;;14.83;10.30;;;;;;;1.14;70.08;100163.83;1654767;85;21094;-68
2022/12/15 06:56:26;;;;;;;16.25;10.85;;;;;;;1.14;70.21;100170.41;1650094;86;21864;-68
2022/12/15 06:58:52;;;;;;;15.63;10.80;;;;;;;1.10;70.33;100164.75;1654173;85;21533;-68
2022/12/15 07:01:21;;;;;;;14.85;10.72;;;;;;;1.07;70.58;100152.00;1670336;84;21148;-68
2022/12/15 07:03:48;;;;;;;15.43;10.43;;;;;;;1.06;70.88;100153.53;1676534;84;21078;-69
2022/12/15 07:06:15;;;;;;;13.80;9.83;;;;;;;1.07;71.17;100156.45;1669054;84;21001;-69
2022/12/15 07:08:46;;;;;;;15.40;10.13;;;;;;;1.09;71.40;100147.86;1648385;85;21169;-70
2022/12/15 07:11:12;;;;;;;15.78;10.78;;;;;;;1.09;71.51;100157.88;1674827;84;21088;-67
2022/12/15 07:13:39;;;;;;;16.25;9.80;;;;;;;1.11;71.71;100170.81;1661497;84;21681;-69
2022/12/15 07:16:06;;;;;;;16.87;11.15;;;;;;;1.13;71.94;100153.81;1661827;85;22147;-68
2022/12/15 07:18:33;;;;;;;15.60;10.28;;;;;;;1.14;72.10;100156.73;1663281;84;21126;-68
2022/12/15 07:21:04;;;;;;;15.20;9.75;;;;;;;1.21;72.39;100161.19;1661608;86;21229;-69
2022/12/15 07:23:33;;;;;;;15.43;10.20;;;;;;;1.25;72.55;100159.27;1663920;85;21147;-69
2022/12/15 07:26:07;;;;;;;14.50;9.55;;;;;;;1.31;72.62;100154.48;1666174;85;21644;-69
2022/12/15 07:28:35;;;;;;;16.70;10.45;;;;;;;1.36;72.71;100157.83;1655796;85;21082;-68
2022/12/15 07:31:06;;;;;;;16.20;10.70;;;;;;;1.41;72.60;100161.95;1656443;85;21106;-69
2022/12/15 07:33:34;;;;;;;12.20;8.48;;;;;;;1.43;72.53;100165.19;1654434;85;21769;-69
2022/12/15 07:36:01;;;;;;;15.18;9.38;;;;;;;1.43;72.42;100154.66;1664884;85;21107;-69
2022/12/15 07:38:29;;;;;;;16.62;10.35;;;;;;;1.45;72.38;100157.08;1665335;85;21154;-69
2022/12/15 07:41:02;;;;;;;15.50;9.80;;;;;;;1.45;72.38;100159.23;1668001;84;21054;-68
2022/12/15 07:43:29;;;;;;;16.93;10.55;;;;;;;1.47;72.34;100147.97;1667491;84;21124;-68
2022/12/15 07:45:57;;;;;;;15.15;11.12;;;;;;;1.45;72.28;100150.02;1669605;84;21535;-69
2022/12/15 07:48:23;;;;;;;14.85;10.18;;;;;;;1.46;72.29;100151.63;1683235;84;21644;-68
2022/12/15 07:50:56;;;;;;;16.45;11.28;;;;;;;1.52;72.33;100165.78;1673258;83;21110;-68
2022/12/15 07:56:04;;;;;;;17.27;10.53;;;;;;;1.63;72.29;100166.45;1823074;77;22722;-67
2022/12/15 07:58:31;;;;;;;15.85;10.55;;;;;;;1.62;72.31;100166.16;1844812;77;21478;-68
2022/12/15 08:00:59;;;;;;;16.23;10.28;;;;;;;1.66;72.28;100164.72;1785535;80;22095;-69
2022/12/15 08:03:26;;;;;;;16.40;10.80;;;;;;;1.71;72.22;100160.13;1820801;78;20896;-68
2022/12/15 08:05:52;;;;;;;16.32;10.82;;;;;;;1.72;72.13;100168.35;1792404;80;21039;-67
2022/12/15 08:08:21;;;;;;;14.93;10.13;;;;;;;1.76;72.11;100174.30;1803750;79;21585;-68
2022/12/15 08:10:48;;;;;;;14.43;9.83;;;;;;;1.80;72.11;100173.38;1794141;79;21006;-68
2022/12/15 08:13:15;;;;;;;16.65;10.72;;;;;;;1.87;72.04;100184.68;1797123;79;22262;-68
2022/12/15 08:15:42;;;;;;;15.93;10.38;;;;;;;1.91;71.96;100179.32;1799368;79;20992;-68
2022/12/15 08:18:08;;;;;;;13.53;9.40;;;;;;;1.96;71.90;100179.48;1796445;79;20937;-68
2022/12/15 08:20:36;;;;;;;14.18;9.80;;;;;;;2.00;71.90;100183.31;1794037;79;21125;-67
2022/12/15 08:23:02;;;;;;;14.53;9.95;;;;;;;2.06;71.86;100186.42;1794978;79;21022;-70
2022/12/15 08:25:29;;;;;;;15.08;10.38;;;;;;;2.07;71.72;100178.84;1795157;79;21150;-67
2022/12/15 08:27:56;;;;;;;15.13;9.78;;;;;;;2.08;71.71;100183.59;1782652;79;21066;-68
2022/12/15 08:30:23;;;;;;;15.50;10.05;;;;;;;2.10;71.69;100175.76;1800246;79;21006;-68
2022/12/15 08:32:50;;;;;;;15.00;9.93;;;;;;;2.15;71.69;100180.41;1789854;79;20990;-68
2022/12/15 08:35:16;;;;;;;15.08;9.50;;;;;;;2.21;71.69;100174.82;1793971;79;21050;-68
2022/12/15 08:37:44;;;;;;;14.40;9.63;;;;;;;2.26;71.65;100173.66;1787908;79;21526;-70
2022/12/15 08:40:12;;;;;;;14.00;9.80;;;;;;;2.25;71.56;100170.22;1792691;79;21061;-68
2022/12/15 08:42:40;;;;;;;14.23;9.63;;;;;;;2.26;71.55;100169.20;1792389;78;21049;-68
2022/12/15 08:45:08;;;;;;;12.13;8.83;;;;;;;2.28;71.54;100169.80;1789072;79;21065;-69
2022/12/15 08:47:35;;;;;;;16.00;10.08;;;;;;;2.29;71.52;100168.77;1786557;79;21509;-69
2022/12/15 08:50:03;;;;;;;14.07;9.13;;;;;;;2.30;71.56;100166.45;1801813;78;21188;-68
2022/12/15 08:52:31;;;;;;;14.05;9.58;;;;;;;2.37;71.59;100169.05;1799443;79;21030;-69
2022/12/15 08:54:57;;;;;;;13.20;9.00;;;;;;;2.38;71.56;100163.27;1799858;79;21078;-71
2022/12/15 08:57:26;;;;;;;12.98;9.10;;;;;;;2.41;71.58;100164.16;1799352;79;21124;-69
2022/12/15 08:59:52;;;;;;;13.60;8.58;;;;;;;2.44;71.61;100168.49;1769549;79;21035;-69
2022/12/15 09:02:19;;;;;;;13.35;9.00;;;;;;;2.48;71.61;100179.41;1804325;78;21801;-70
2022/12/15 09:04:46;;;;;;;13.00;8.98;;;;;;;2.51;71.60;100173.72;1770928;79;21077;-69
2022/12/15 09:07:13;;;;;;;13.98;9.65;;;;;;;2.53;71.61;100173.81;1793188;79;21082;-70
2022/12/15 09:09:40;;;;;;;12.50;8.75;;;;;;;2.57;71.63;100179.47;1797955;79;21081;-69
2022/12/15 09:12:08;;;;;;;11.33;8.38;;;;;;;2.62;71.59;100170.91;1797509;79;21043;-69
2022/12/15 09:14:35;;;;;;;13.08;8.50;;;;;;;2.64;71.59;100171.50;1794972;79;21089;-68
2022/12/15 09:17:02;;;;;;;11.22;8.15;;;;;;;2.67;71.60;100175.03;1790867;79;21034;-69
2022/12/15 09:19:29;;;;;;;11.70;8.38;;;;;;;2.69;71.67;100167.70;1770258;79;21033;-69
2022/12/15 09:21:55;;;;;;;13.68;8.35;;;;;;;2.71;71.76;100177.02;1792098;79;21794;-70
2022/12/15 09:24:23;;;;;;;12.58;8.75;;;;;;;2.75;71.86;100168.97;1768069;80;21503;-69
2022/12/15 09:26:50;;;;;;;11.83;8.70;;;;;;;2.76;71.93;100163.17;1794766;79;21247;-69
2022/12/15 09:29:17;;;;;;;13.85;9.70;;;;;;;2.80;71.96;100169.66;1774831;79;21612;-69
2022/12/15 09:31:45;;;;;;;13.53;9.30;;;;;;;2.81;71.93;100167.31;1774136;79;21073;-72
2022/12/15 09:34:15;;;;;;;13.50;9.50;;;;;;;2.81;71.94;100163.35;1775045;79;21081;-70
2022/12/15 09:36:41;;;;;;;10.93;8.18;;;;;;;2.83;71.94;100167.91;1780521;79;21021;-69
2022/12/15 09:39:10;;;;;;;13.25;9.60;;;;;;;2.83;71.92;100150.77;1793772;78;21105;-69
2022/12/15 09:41:37;;;;;;;13.10;9.45;;;;;;;2.86;71.96;100152.14;1793801;78;20960;-70
2022/12/15 09:44:15;;;;;;;13.40;9.05;;;;;;;2.91;72.00;100146.53;1784942;79;21038;-70
2022/12/15 09:47:07;;;;;;;13.78;9.38;;;;;;;2.95;71.97;100149.02;1785102;79;21062;-71
2022/12/15 09:49:54;;;;;;;14.18;9.70;;;;;;;3.03;72.02;100152.72;1786144;79;21125;-70
2022/12/15 09:52:52;;;;;;;12.45;9.18;;;;;;;3.08;71.91;100145.97;1796657;79;21107;-70
2022/12/15 09:55:28;;;;;;;12.30;8.60;;;;;;;3.09;71.72;100146.25;1790618;79;21086;-69
2022/12/15 09:58:05;;;;;;;12.93;9.18;;;;;;;3.09;71.63;100142.30;1799522;79;21058;-70
2022/12/15 10:00:54;;;;;;;13.28;9.78;;;;;;;3.09;71.55;100142.30;1798086;78;21020;-71
2022/12/15 10:03:54;;;;;;;13.28;9.25;;;;;;;3.05;71.63;100149.33;1794673;78;21052;-70
2022/12/15 10:06:42;;;;;;;15.88;10.13;;;;;;;2.96;72.00;100149.34;1798553;78;21550;-71
2022/12/15 10:09:19;;;;;;;12.25;8.40;;;;;;;3.00;72.04;100156.30;1800541;78;21068;-70
2022/12/15 10:12:08;;;;;;;12.07;9.15;;;;;;;3.16;71.60;100154.42;1798923;79;21056;-70
2022/12/15 10:14:49;;;;;;;13.03;9.33;;;;;;;3.20;71.54;100160.07;1796878;79;21039;-69
2022/12/15 10:17:41;;;;;;;11.78;8.65;;;;;;;3.27;71.52;100156.85;1771873;79;21097;-71
2022/12/15 10:20:20;;;;;;;;;;;;;;;3.31;71.46;100158.02;1786693;79;21163;-71
2022/12/15 10:22:47;;;;;;;11.85;8.58;;;;;;;3.64;70.63;100153.70;1779547;79;20167;-71
2022/12/15 10:25:21;;;;;;;11.83;8.88;;;;;;;3.68;70.33;100152.22;1783758;78;21023;-69
2022/12/15 10:28:35;;;;;;;13.30;9.18;;;;;;;3.71;70.22;100156.26;1769450;79;21090;-70
2022/12/15 10:31:43;;;;;;;11.18;8.43;;;;;;;3.50;70.68;100158.84;1789354;79;21591;-70
2022/12/15 10:34:29;;;;;;;12.05;8.93;;;;;;;3.45;70.91;100156.84;1775182;79;21120;-69
2022/12/15 10:36:57;;;;;;;12.50;8.65;;;;;;;3.46;71.08;100155.84;1790566;79;21309;-70
2022/12/15 10:39:40;;;;;;;13.28;9.23;;;;;;;3.48;71.10;100152.45;1788468;78;21133;-70
2022/12/15 10:42:21;;;;;;;13.13;9.43;;;;;;;3.50;71.06;100147.77;1723190;79;21582;-69
2022/12/15 10:44:55;;;;;;;13.95;9.78;;;;;;;3.53;71.10;100138.08;1790048;79;21156;-69
2022/12/15 10:47:28;;;;;;;13.80;9.33;;;;;;;3.52;71.07;100140.44;1812999;78;21766;-68
2022/12/15 10:49:55;;;;;;;11.90;9.10;;;;;;;3.56;71.14;100137.36;1781035;79;22154;-68
2022/12/15 10:52:33;;;;;;;11.50;8.85;;;;;;;3.57;71.17;100137.64;1784436;79;21053;-70
2022/12/15 10:54:59;;;;;;;13.48;9.55;;;;;;;3.60;71.20;100135.89;1794672;79;21035;-70
2022/12/15 19:09:22;;;;;;;17.93;13.63;;;;;;;3.52;88.50;100457.31;1807327;78;23300;-70
2022/12/15 19:14:45;;;;;;;21.97;15.50;;;;;;;3.58;87.11;100470.16;1810093;78;21105;-71
2022/12/15 19:22:57;;;;;;;21.10;14.33;;;;;;;4.17;84.13;100461.49;1685905;83;21489;-70
2022/12/15 19:25:27;;;;;;;19.12;13.75;;;;;;;4.25;83.47;100465.20;1758558;78;21059;-69
2022/12/15 19:27:59;;;;;;;21.00;13.50;;;;;;;4.31;82.99;100461.69;1758754;80;21136;-70
2022/12/15 19:30:30;;;;;;;18.03;13.13;;;;;;;4.14;83.05;100459.28;1417770;80;9999840;-70
2022/12/15 19:33:04;;;;;;;18.93;13.47;;;;;;;4.15;82.98;100470.98;1754039;80;21482;-69
2022/12/15 19:35:30;;;;;;;;;;;;;;;4.30;82.45;100468.50;1789544;79;21577;-68
2022/12/15 19:37:57;;;;;;;18.27;12.98;;;;;;;4.13;82.59;100486.75;1738982;80;20183;-70
2022/12/15 19:40:29;;;;;;;18.05;13.40;;;;;;;4.14;82.56;100490.48;1770941;79;21643;-69
2022/12/15 19:42:55;;;;;;;18.37;12.88;;;;;;;4.24;81.97;100483.39;1789571;78;22218;-68
2022/12/15 19:45:24;;;;;;;19.30;14.07;;;;;;;4.16;82.12;100472.59;1768318;79;21071;-69
2022/12/15 19:47:51;;;;;;;18.85;13.15;;;;;;;4.16;81.93;100479.19;1784512;79;21041;-69
2022/12/15 19:50:22;;;;;;;18.42;12.85;;;;;;;4.15;81.65;100495.28;1783600;78;21065;-68
2022/12/15 19:52:58;;;;;;;20.32;13.45;;;;;;;4.14;81.45;100505.54;1786872;79;21037;-69
2022/12/15 19:55:29;;;;;;;16.52;12.58;;;;;;;4.49;80.01;100509.02;1779872;80;21153;-70
2022/12/15 19:57:56;;;;;;;18.32;13.10;;;;;;;4.53;79.37;100512.84;1770187;79;21102;-69
2022/12/15 20:00:26;;;;;;;19.90;13.10;;;;;;;4.51;78.84;100507.78;1762164;80;21077;-69
2022/12/15 20:02:54;;;;;;;17.37;12.73;;;;;;;4.50;78.56;100502.69;1788020;79;21086;-70
2022/12/15 20:05:22;;;;;;;19.25;13.60;;;;;;;4.53;78.33;100503.06;1750157;80;21109;-69
2022/12/15 20:07:50;;;;;;;18.70;13.25;;;;;;;4.55;77.94;100508.16;1785648;78;21114;-68
2022/12/15 20:10:21;;;;;;;18.70;13.60;;;;;;;4.58;77.67;100502.42;1751358;80;21038;-69
2022/12/15 20:12:49;;;;;;;21.00;14.07;;;;;;;4.61;77.58;100505.44;1789816;78;21069;-69
2022/12/15 20:15:18;;;;;;;17.30;13.35;;;;;;;4.67;77.44;100514.32;1772171;80;21021;-70
2022/12/15 20:17:44;;;;;;;18.73;13.70;;;;;;;4.64;76.94;100518.72;1772461;80;21048;-69
2022/12/15 20:20:14;;;;;;;19.32;13.70;;;;;;;4.60;76.81;100529.45;1762382;80;21255;-69
2022/12/15 20:22:44;;;;;;;19.17;14.07;;;;;;;4.56;76.40;100538.86;1770736;80;21109;-70
2022/12/15 20:25:19;;;;;;;18.57;13.05;;;;;;;4.48;76.25;100526.73;1774671;80;21054;-69
2022/12/15 20:27:47;;;;;;;18.32;13.30;;;;;;;4.53;76.33;100527.39;1780198;80;21033;-70
2022/12/15 20:30:26;;;;;;;19.35;13.58;;;;;;;4.59;76.16;100533.13;1778509;80;21069;-70
2022/12/15 20:32:53;;;;;;;20.50;14.73;;;;;;;4.57;75.93;100537.82;1747756;79;21243;-69
2022/12/15 20:35:20;;;;;;;20.43;13.93;;;;;;;4.59;75.90;100546.36;1763110;80;21108;-70
2022/12/15 20:37:47;;;;;;;20.27;14.23;;;;;;;4.58;75.72;100558.78;1756629;80;21042;-69
2022/12/15 20:40:20;;;;;;;20.45;14.15;;;;;;;4.60;75.70;100563.84;1756628;81;21045;-72
2022/12/15 20:42:47;;;;;;;21.82;14.73;;;;;;;4.62;75.61;100569.73;1753721;81;21088;-68
2022/12/15 20:45:16;;;;;;;21.40;15.32;;;;;;;4.59;75.37;100572.81;1750266;80;21233;-69
2022/12/15 20:47:44;;;;;;;23.62;15.53;;;;;;;4.52;75.23;100573.39;1754493;80;21603;-71
2022/12/15 20:50:33;;;;;;;21.97;16.12;;;;;;;4.53;75.20;100582.41;1754779;81;21022;-68
2022/12/15 20:53:00;;;;;;;23.80;17.23;;;;;;;4.48;75.13;100570.89;1766330;79;21030;-69
2022/12/15 20:55:27;;;;;;;23.22;15.58;;;;;;;4.43;75.09;100565.70;1761014;79;22154;-69
2022/12/15 20:57:54;;;;;;;21.50;15.98;;;;;;;4.50;75.18;100566.17;1755302;79;21241;-69
2022/12/15 21:00:21;;;;;;;21.52;15.70;;;;;;;4.55;75.18;100558.41;1753885;81;21054;-70
2022/12/15 21:02:47;;;;;;;20.90;14.90;;;;;;;4.61;75.24;100546.45;1754011;80;21045;-70
2022/12/15 21:05:20;;;;;;;20.32;15.18;;;;;;;4.73;75.24;100545.20;1790843;79;21587;-69
2022/12/15 21:07:49;;;;;;;20.30;14.73;;;;;;;4.84;75.16;100541.05;1787652;79;21115;-70
2022/12/15 21:10:18;;;;;;;21.17;15.18;;;;;;;4.92;74.96;100538.09;1749619;80;21295;-69
2022/12/15 21:12:47;;;;;;;20.90;14.20;;;;;;;4.99;74.79;100533.53;1754051;80;21073;-69
2022/12/15 21:15:20;;;;;;;23.27;16.07;;;;;;;5.05;74.64;100543.25;1783011;79;21005;-70
2022/12/15 21:17:51;;;;;;;21.17;14.43;;;;;;;5.11;74.44;100541.56;1788115;78;21410;-69
2022/12/15 21:20:18;;;;;;;18.95;14.15;;;;;;;5.15;74.09;100563.91;1760320;81;21062;-69
2022/12/15 21:22:45;;;;;;;20.10;14.47;;;;;;;5.08;73.74;100560.53;1781517;79;21435;-69
2022/12/15 21:25:24;;;;;;;20.52;14.73;;;;;;;5.05;73.75;100563.62;1747582;80;21086;-69
2022/12/15 21:27:51;;;;;;;22.82;15.03;;;;;;;5.07;73.64;100545.69;1788595;79;21576;-69
2022/12/15 21:30:21;;;;;;;23.35;16.45;;;;;;;4.96;73.18;100553.02;1788958;80;21030;-69
2022/12/15 21:32:51;;;;;;;21.37;15.43;;;;;;;4.82;73.07;100559.77;1786564;78;21125;-68
2022/12/15 21:35:18;;;;;;;21.45;15.50;;;;;;;4.80;73.02;100576.37;1776279;78;21164;-68
2022/12/15 21:37:47;;;;;;;23.70;16.05;;;;;;;4.73;72.89;100589.37;1783027;78;21038;-68
2022/12/15 21:40:22;;;;;;;21.75;15.63;;;;;;;4.61;72.88;100581.35;1759976;80;21054;-69
2022/12/15 21:42:49;;;;;;;21.30;14.78;;;;;;;4.56;73.11;100579.86;1775906;78;21576;-70
2022/12/15 21:45:18;;;;;;;22.45;16.50;;;;;;;4.59;73.18;100592.66;1769704;80;21659;-69
2022/12/15 21:50:30;;;;;;;21.77;15.95;;;;;;;4.65;73.27;100596.56;1784475;78;21038;-68
2022/12/15 21:52:59;;;;;;;23.20;16.07;;;;;;;5.01;72.59;100600.31;1752989;79;20987;-69
2022/12/15 21:55:26;;;;;;;22.62;16.12;;;;;;;4.79;72.94;100603.87;1759522;79;21153;-69
2022/12/15 21:57:53;;;;;;;23.12;17.37;;;;;;;4.76;72.81;100602.98;1752830;79;20954;-69
2022/12/15 22:00:20;;;;;;;26.02;17.75;;;;;;;4.94;72.45;100606.19;1751806;79;21544;-69
2022/12/15 22:02:49;;;;;;;26.05;18.30;;;;;;;4.81;72.68;100604.47;1748210;80;21148;-69
2022/12/15 22:05:20;;;;;;;25.37;17.75;;;;;;;4.81;73.08;100604.98;1756561;79;21584;-69
2022/12/15 22:07:48;;;;;;;24.32;17.60;;;;;;;4.87;73.25;100606.73;1762322;80;21112;-69
2022/12/15 22:10:15;;;;;;;24.72;17.25;;;;;;;4.91;73.38;100619.34;1762332;80;21525;-68
2022/12/15 22:12:43;;;;;;;24.37;17.50;;;;;;;4.97;73.42;100623.45;1759736;79;21183;-68
2022/12/15 22:15:19;;;;;;;25.02;16.95;;;;;;;5.03;73.38;100626.55;1758307;79;21061;-68
2022/12/15 22:17:47;;;;;;;21.87;17.07;;;;;;;5.18;73.14;100628.34;1753578;79;21042;-68
2022/12/15 22:20:17;;;;;;;22.52;16.70;;;;;;;5.10;73.10;100628.13;1755238;79;21026;-68
2022/12/15 22:22:44;;;;;;;24.25;16.60;;;;;;;5.10;72.95;100640.53;1757082;79;21041;-68